sensor_id;sensor_type;location;lat;lon;timestamp;P1;durP1;ratioP1;P2;durP2;ratioP2
3811;SDS011;1921;49.368;11.068;2023-05-20T00:00:28;54.93;;;49.13;;
3811;SDS011;1921;49.368;11.068;2023-05-20T00:02:54;54.23;;;48.33;;
3811;SDS011;1921;49.368;11.068;2023-05-20T00:05:21;54.40;;;48.67;;
3811;SDS011;1921;49.368;11.068;2023-05-20T00:07:47;55.23;;;49.53;;
3811;SDS011;1921;49.368;11.068;2023-05-20T00:10:13;54.67;;;49.07;;
3811;SDS011;1921;49.368;11.068;2023-05-20T00:12:38;54.60;;;48.70;;
3811;SDS011;1921;49.368;11.068;2023-05-20T00:15:05;54.63;;;48.90;;
3811;SDS011;1921;49.368;11.068;2023-05-20T00:17:31;54.03;;;48.50;;
3811;SDS011;1921;49.368;11.068;2023-05-20T00:19:57;53.40;;;47.77;;
3811;SDS011;1921;49.368;11.068;2023-05-20T00:22:24;54.07;;;48.40;;
3811;SDS011;1921;49.368;11.068;2023-05-20T00:24:50;54.50;;;48.77;;
3811;SDS011;1921;49.368;11.068;2023-05-20T00:27:15;54.83;;;49.13;;
3811;SDS011;1921;49.368;11.068;2023-05-20T00:29:41;55.07;;;49.17;;
3811;SDS011;1921;49.368;11.068;2023-05-20T00:32:07;54.17;;;48.37;;
3811;SDS011;1921;49.368;11.068;2023-05-20T00:34:32;54.33;;;48.60;;
3811;SDS011;1921;49.368;11.068;2023-05-20T00:36:58;54.93;;;49.20;;
3811;SDS011;1921;49.368;11.068;2023-05-20T00:39:24;54.50;;;48.80;;
3811;SDS011;1921;49.368;11.068;2023-05-20T00:41:50;54.95;;;49.15;;
3811;SDS011;1921;49.368;11.068;2023-05-20T00:44:15;55.20;;;49.30;;
3811;SDS011;1921;49.368;11.068;2023-05-20T00:46:43;54.83;;;48.83;;
3811;SDS011;1921;49.368;11.068;2023-05-20T00:49:11;54.23;;;48.57;;
3811;SDS011;1921;49.368;11.068;2023-05-20T00:51:38;55.00;;;49.20;;
3811;SDS011;1921;49.368;11.068;2023-05-20T00:54:03;53.93;;;48.03;;
3811;SDS011;1921;49.368;11.068;2023-05-20T00:56:29;55.00;;;49.17;;
3811;SDS011;1921;49.368;11.068;2023-05-20T00:58:55;54.47;;;48.70;;
3811;SDS011;1921;49.368;11.068;2023-05-20T01:01:22;52.13;;;46.73;;
3811;SDS011;1921;49.368;11.068;2023-05-20T01:03:47;55.67;;;49.57;;
3811;SDS011;1921;49.368;11.068;2023-05-20T01:06:13;55.23;;;49.33;;
3811;SDS011;1921;49.368;11.068;2023-05-20T01:08:39;55.83;;;49.73;;
3811;SDS011;1921;49.368;11.068;2023-05-20T01:11:10;58.57;;;49.10;;
3811;SDS011;1921;49.368;11.068;2023-05-20T01:13:57;53.00;;;47.50;;
3811;SDS011;1921;49.368;11.068;2023-05-20T01:16:30;54.43;;;48.73;;
3811;SDS011;1921;49.368;11.068;2023-05-20T01:18:57;55.27;;;49.37;;
3811;SDS011;1921;49.368;11.068;2023-05-20T01:21:26;55.63;;;49.63;;
3811;SDS011;1921;49.368;11.068;2023-05-20T01:23:54;54.53;;;48.80;;
3811;SDS011;1921;49.368;11.068;2023-05-20T01:26:20;54.60;;;48.80;;
3811;SDS011;1921;49.368;11.068;2023-05-20T01:28:46;55.30;;;49.50;;
3811;SDS011;1921;49.368;11.068;2023-05-20T01:31:22;55.25;;;49.30;;
3811;SDS011;1921;49.368;11.068;2023-05-20T01:33:50;55.60;;;49.73;;
3811;SDS011;1921;49.368;11.068;2023-05-20T01:36:20;53.00;;;47.50;;
3811;SDS011;1921;49.368;11.068;2023-05-20T01:38:47;54.13;;;48.53;;
3811;SDS011;1921;49.368;11.068;2023-05-20T01:41:14;57.07;;;49.50;;
3811;SDS011;1921;49.368;11.068;2023-05-20T01:43:41;53.50;;;47.63;;
3811;SDS011;1921;49.368;11.068;2023-05-20T01:46:08;54.80;;;49.00;;
3811;SDS011;1921;49.368;11.068;2023-05-20T01:48:34;55.17;;;49.30;;
3811;SDS011;1921;49.368;11.068;2023-05-20T01:51:00;53.70;;;48.00;;
3811;SDS011;1921;49.368;11.068;2023-05-20T01:53:25;53.60;;;48.00;;
3811;SDS011;1921;49.368;11.068;2023-05-20T01:55:51;55.47;;;49.57;;
3811;SDS011;1921;49.368;11.068;2023-05-20T01:58:17;53.80;;;48.20;;
3811;SDS011;1921;49.368;11.068;2023-05-20T02:00:43;55.33;;;49.47;;
3811;SDS011;1921;49.368;11.068;2023-05-20T02:03:08;54.10;;;48.30;;
3811;SDS011;1921;49.368;11.068;2023-05-20T02:05:35;57.60;;;49.10;;
3811;SDS011;1921;49.368;11.068;2023-05-20T02:08:00;56.00;;;49.93;;
3811;SDS011;1921;49.368;11.068;2023-05-20T02:10:26;53.27;;;47.70;;
3811;SDS011;1921;49.368;11.068;2023-05-20T02:12:52;52.10;;;46.70;;
3811;SDS011;1921;49.368;11.068;2023-05-20T02:15:17;57.43;;;49.70;;
3811;SDS011;1921;49.368;11.068;2023-05-20T02:17:43;54.05;;;48.17;;
3811;SDS011;1921;49.368;11.068;2023-05-20T02:20:10;55.72;;;49.72;;
3811;SDS011;1921;49.368;11.068;2023-05-20T02:22:36;54.58;;;48.78;;
3811;SDS011;1921;49.368;11.068;2023-05-20T02:25:01;55.97;;;49.87;;
3811;SDS011;1921;49.368;11.068;2023-05-20T02:27:27;56.07;;;48.93;;
3811;SDS011;1921;49.368;11.068;2023-05-20T02:29:53;54.53;;;48.83;;
3811;SDS011;1921;49.368;11.068;2023-05-20T02:32:19;55.17;;;49.37;;
3811;SDS011;1921;49.368;11.068;2023-05-20T02:34:45;54.83;;;49.17;;
3811;SDS011;1921;49.368;11.068;2023-05-20T02:37:11;55.67;;;49.77;;
3811;SDS011;1921;49.368;11.068;2023-05-20T02:39:36;58.00;;;49.63;;
3811;SDS011;1921;49.368;11.068;2023-05-20T02:42:02;54.80;;;49.00;;
3811;SDS011;1921;49.368;11.068;2023-05-20T02:44:28;56.20;;;50.30;;
3811;SDS011;1921;49.368;11.068;2023-05-20T02:46:54;54.93;;;49.10;;
3811;SDS011;1921;49.368;11.068;2023-05-20T02:49:20;53.97;;;48.37;;
3811;SDS011;1921;49.368;11.068;2023-05-20T02:51:46;54.63;;;48.80;;
3811;SDS011;1921;49.368;11.068;2023-05-20T02:54:11;53.90;;;48.40;;
3811;SDS011;1921;49.368;11.068;2023-05-20T02:56:37;55.37;;;49.57;;
3811;SDS011;1921;49.368;11.068;2023-05-20T02:59:03;56.07;;;50.13;;
3811;SDS011;1921;49.368;11.068;2023-05-20T03:01:30;55.70;;;49.60;;
3811;SDS011;1921;49.368;11.068;2023-05-20T03:03:57;55.30;;;49.60;;
3811;SDS011;1921;49.368;11.068;2023-05-20T03:06:23;54.60;;;48.88;;
3811;SDS011;1921;49.368;11.068;2023-05-20T03:08:49;55.70;;;49.70;;
3811;SDS011;1921;49.368;11.068;2023-05-20T03:11:14;53.53;;;48.00;;
3811;SDS011;1921;49.368;11.068;2023-05-20T03:13:40;54.70;;;49.00;;
3811;SDS011;1921;49.368;11.068;2023-05-20T03:16:06;53.83;;;48.23;;
3811;SDS011;1921;49.368;11.068;2023-05-20T03:18:32;55.27;;;49.37;;
3811;SDS011;1921;49.368;11.068;2023-05-20T03:20:57;55.00;;;49.15;;
3811;SDS011;1921;49.368;11.068;2023-05-20T03:23:23;55.10;;;49.15;;
3811;SDS011;1921;49.368;11.068;2023-05-20T03:25:49;56.30;;;49.03;;
3811;SDS011;1921;49.368;11.068;2023-05-20T03:28:14;54.57;;;48.73;;
3811;SDS011;1921;49.368;11.068;2023-05-20T03:30:40;55.03;;;49.03;;
3811;SDS011;1921;49.368;11.068;2023-05-20T03:33:06;53.30;;;47.80;;
3811;SDS011;1921;49.368;11.068;2023-05-20T03:35:32;54.57;;;48.60;;
3811;SDS011;1921;49.368;11.068;2023-05-20T03:37:58;54.73;;;48.90;;
3811;SDS011;1921;49.368;11.068;2023-05-20T03:40:25;56.60;;;50.40;;
3811;SDS011;1921;49.368;11.068;2023-05-20T03:42:51;53.00;;;47.53;;
3811;SDS011;1921;49.368;11.068;2023-05-20T03:45:17;55.80;;;49.80;;
3811;SDS011;1921;49.368;11.068;2023-05-20T03:47:43;55.00;;;49.10;;
3811;SDS011;1921;49.368;11.068;2023-05-20T03:50:08;56.38;;;49.58;;
3811;SDS011;1921;49.368;11.068;2023-05-20T03:52:34;55.33;;;49.40;;
3811;SDS011;1921;49.368;11.068;2023-05-20T03:55:01;55.70;;;49.90;;
3811;SDS011;1921;49.368;11.068;2023-05-20T03:57:27;53.90;;;48.10;;
3811;SDS011;1921;49.368;11.068;2023-05-20T03:59:54;56.57;;;49.57;;
3811;SDS011;1921;49.368;11.068;2023-05-20T04:02:20;52.83;;;47.33;;
3811;SDS011;1921;49.368;11.068;2023-05-20T04:04:45;56.97;;;50.97;;
3811;SDS011;1921;49.368;11.068;2023-05-20T04:07:11;54.13;;;48.37;;
3811;SDS011;1921;49.368;11.068;2023-05-20T04:09:37;53.80;;;48.20;;
3811;SDS011;1921;49.368;11.068;2023-05-20T04:12:03;53.70;;;48.13;;
3811;SDS011;1921;49.368;11.068;2023-05-20T04:14:30;53.03;;;47.43;;
3811;SDS011;1921;49.368;11.068;2023-05-20T04:16:58;54.40;;;48.60;;
3811;SDS011;1921;49.368;11.068;2023-05-20T04:19:23;56.40;;;50.30;;
3811;SDS011;1921;49.368;11.068;2023-05-20T04:21:52;57.70;;;51.00;;
3811;SDS011;1921;49.368;11.068;2023-05-20T04:24:18;56.20;;;50.20;;
3811;SDS011;1921;49.368;11.068;2023-05-20T04:26:43;56.97;;;50.25;;
3811;SDS011;1921;49.368;11.068;2023-05-20T04:29:09;53.30;;;47.70;;
3811;SDS011;1921;49.368;11.068;2023-05-20T04:31:35;53.47;;;47.93;;
3811;SDS011;1921;49.368;11.068;2023-05-20T04:34:02;56.77;;;50.73;;
3811;SDS011;1921;49.368;11.068;2023-05-20T04:36:28;55.50;;;49.60;;
3811;SDS011;1921;49.368;11.068;2023-05-20T04:38:55;55.45;;;49.55;;
3811;SDS011;1921;49.368;11.068;2023-05-20T04:41:21;56.03;;;49.93;;
3811;SDS011;1921;49.368;11.068;2023-05-20T04:43:46;54.50;;;48.47;;
3811;SDS011;1921;49.368;11.068;2023-05-20T04:46:13;61.70;;;48.30;;
3811;SDS011;1921;49.368;11.068;2023-05-20T04:48:40;56.40;;;50.33;;
3811;SDS011;1921;49.368;11.068;2023-05-20T04:51:07;55.57;;;49.53;;
3811;SDS011;1921;49.368;11.068;2023-05-20T04:53:34;55.63;;;49.63;;
3811;SDS011;1921;49.368;11.068;2023-05-20T04:56:00;55.20;;;49.20;;
3811;SDS011;1921;49.368;11.068;2023-05-20T04:58:27;57.65;;;51.35;;
3811;SDS011;1921;49.368;11.068;2023-05-20T05:00:53;60.40;;;51.10;;
3811;SDS011;1921;49.368;11.068;2023-05-20T05:03:20;56.73;;;50.20;;
3811;SDS011;1921;49.368;11.068;2023-05-20T05:05:46;60.87;;;52.47;;
3811;SDS011;1921;49.368;11.068;2023-05-20T05:08:12;55.67;;;49.57;;
3811;SDS011;1921;49.368;11.068;2023-05-20T05:10:38;54.90;;;48.93;;
3811;SDS011;1921;49.368;11.068;2023-05-20T05:13:09;56.10;;;49.50;;
3811;SDS011;1921;49.368;11.068;2023-05-20T05:15:35;54.30;;;48.47;;
3811;SDS011;1921;49.368;11.068;2023-05-20T05:18:00;58.17;;;51.03;;
3811;SDS011;1921;49.368;11.068;2023-05-20T05:20:26;55.53;;;49.23;;
3811;SDS011;1921;49.368;11.068;2023-05-20T05:22:52;56.88;;;50.63;;
3811;SDS011;1921;49.368;11.068;2023-05-20T05:25:17;60.00;;;51.93;;
3811;SDS011;1921;49.368;11.068;2023-05-20T05:27:43;55.53;;;49.40;;
3811;SDS011;1921;49.368;11.068;2023-05-20T05:30:09;57.37;;;50.93;;
3811;SDS011;1921;49.368;11.068;2023-05-20T05:32:35;62.63;;;53.03;;
3811;SDS011;1921;49.368;11.068;2023-05-20T05:35:02;57.20;;;49.87;;
3811;SDS011;1921;49.368;11.068;2023-05-20T05:37:28;57.87;;;50.93;;
3811;SDS011;1921;49.368;11.068;2023-05-20T05:39:53;60.10;;;51.37;;
3811;SDS011;1921;49.368;11.068;2023-05-20T05:42:19;58.90;;;51.70;;
3811;SDS011;1921;49.368;11.068;2023-05-20T05:44:45;57.33;;;50.70;;
3811;SDS011;1921;49.368;11.068;2023-05-20T05:47:12;63.73;;;53.10;;
3811;SDS011;1921;49.368;11.068;2023-05-20T05:49:38;59.63;;;52.03;;
3811;SDS011;1921;49.368;11.068;2023-05-20T05:52:04;59.03;;;52.00;;
3811;SDS011;1921;49.368;11.068;2023-05-20T05:54:30;61.83;;;51.67;;
3811;SDS011;1921;49.368;11.068;2023-05-20T05:56:56;58.88;;;51.90;;
3811;SDS011;1921;49.368;11.068;2023-05-20T05:59:21;60.93;;;52.70;;
3811;SDS011;1921;49.368;11.068;2023-05-20T06:01:47;60.93;;;51.90;;
3811;SDS011;1921;49.368;11.068;2023-05-20T06:04:13;75.63;;;50.87;;
3811;SDS011;1921;49.368;11.068;2023-05-20T06:06:39;60.10;;;52.17;;
3811;SDS011;1921;49.368;11.068;2023-05-20T06:09:05;61.03;;;51.07;;
3811;SDS011;1921;49.368;11.068;2023-05-20T06:11:31;59.83;;;51.17;;
3811;SDS011;1921;49.368;11.068;2023-05-20T06:13:57;58.40;;;51.13;;
3811;SDS011;1921;49.368;11.068;2023-05-20T06:16:24;59.87;;;52.10;;
3811;SDS011;1921;49.368;11.068;2023-05-20T06:18:49;63.57;;;51.50;;
3811;SDS011;1921;49.368;11.068;2023-05-20T06:21:15;62.37;;;51.67;;
3811;SDS011;1921;49.368;11.068;2023-05-20T06:23:41;57.87;;;50.23;;
3811;SDS011;1921;49.368;11.068;2023-05-20T06:26:07;57.40;;;50.57;;
3811;SDS011;1921;49.368;11.068;2023-05-20T06:28:32;57.13;;;50.47;;
3811;SDS011;1921;49.368;11.068;2023-05-20T06:30:58;60.10;;;52.60;;
3811;SDS011;1921;49.368;11.068;2023-05-20T06:33:25;61.77;;;53.23;;
3811;SDS011;1921;49.368;11.068;2023-05-20T06:35:53;59.07;;;52.03;;
3811;SDS011;1921;49.368;11.068;2023-05-20T06:38:19;58.53;;;50.97;;
3811;SDS011;1921;49.368;11.068;2023-05-20T06:40:45;60.97;;;51.30;;
3811;SDS011;1921;49.368;11.068;2023-05-20T06:43:13;56.17;;;49.90;;
3811;SDS011;1921;49.368;11.068;2023-05-20T06:45:39;60.40;;;51.50;;
3811;SDS011;1921;49.368;11.068;2023-05-20T06:48:05;67.45;;;50.70;;
3811;SDS011;1921;49.368;11.068;2023-05-20T06:50:31;58.17;;;51.50;;
3811;SDS011;1921;49.368;11.068;2023-05-20T06:52:57;69.53;;;53.33;;
3811;SDS011;1921;49.368;11.068;2023-05-20T06:55:23;59.83;;;50.97;;
3811;SDS011;1921;49.368;11.068;2023-05-20T06:57:48;60.10;;;51.37;;
3811;SDS011;1921;49.368;11.068;2023-05-20T07:00:14;61.90;;;52.50;;
3811;SDS011;1921;49.368;11.068;2023-05-20T07:02:40;62.17;;;51.53;;
3811;SDS011;1921;49.368;11.068;2023-05-20T07:05:07;62.17;;;53.23;;
3811;SDS011;1921;49.368;11.068;2023-05-20T07:07:33;62.97;;;52.90;;
3811;SDS011;1921;49.368;11.068;2023-05-20T07:09:59;59.87;;;51.20;;
3811;SDS011;1921;49.368;11.068;2023-05-20T07:12:25;59.47;;;51.43;;
3811;SDS011;1921;49.368;11.068;2023-05-20T07:14:50;59.30;;;51.57;;
3811;SDS011;1921;49.368;11.068;2023-05-20T07:17:16;61.03;;;52.03;;
3811;SDS011;1921;49.368;11.068;2023-05-20T07:19:42;62.33;;;53.07;;
3811;SDS011;1921;49.368;11.068;2023-05-20T07:22:07;59.47;;;50.90;;
3811;SDS011;1921;49.368;11.068;2023-05-20T07:24:34;59.27;;;50.90;;
3811;SDS011;1921;49.368;11.068;2023-05-20T07:27:01;62.47;;;51.80;;
3811;SDS011;1921;49.368;11.068;2023-05-20T07:29:26;61.13;;;52.87;;
3811;SDS011;1921;49.368;11.068;2023-05-20T07:31:52;63.07;;;52.87;;
3811;SDS011;1921;49.368;11.068;2023-05-20T07:34:18;62.73;;;50.90;;
3811;SDS011;1921;49.368;11.068;2023-05-20T07:36:44;64.83;;;53.33;;
3811;SDS011;1921;49.368;11.068;2023-05-20T07:39:10;63.67;;;53.77;;
3811;SDS011;1921;49.368;11.068;2023-05-20T07:41:36;62.90;;;53.27;;
3811;SDS011;1921;49.368;11.068;2023-05-20T07:44:05;60.53;;;52.03;;
3811;SDS011;1921;49.368;11.068;2023-05-20T07:46:36;60.70;;;51.93;;
3811;SDS011;1921;49.368;11.068;2023-05-20T07:49:05;61.80;;;51.90;;
3811;SDS011;1921;49.368;11.068;2023-05-20T07:51:32;63.50;;;52.00;;
3811;SDS011;1921;49.368;11.068;2023-05-20T07:53:57;64.10;;;54.17;;
3811;SDS011;1921;49.368;11.068;2023-05-20T07:56:23;64.90;;;53.87;;
3811;SDS011;1921;49.368;11.068;2023-05-20T07:58:52;64.33;;;53.50;;
3811;SDS011;1921;49.368;11.068;2023-05-20T08:01:22;61.60;;;52.47;;
3811;SDS011;1921;49.368;11.068;2023-05-20T08:03:48;65.18;;;54.83;;
3811;SDS011;1921;49.368;11.068;2023-05-20T08:06:14;64.38;;;53.78;;
3811;SDS011;1921;49.368;11.068;2023-05-20T08:08:41;63.60;;;53.10;;
3811;SDS011;1921;49.368;11.068;2023-05-20T08:11:07;61.87;;;53.27;;
3811;SDS011;1921;49.368;11.068;2023-05-20T08:13:34;61.73;;;53.23;;
3811;SDS011;1921;49.368;11.068;2023-05-20T08:16:00;64.67;;;53.90;;
3811;SDS011;1921;49.368;11.068;2023-05-20T08:18:30;64.18;;;53.05;;
3811;SDS011;1921;49.368;11.068;2023-05-20T08:20:57;63.07;;;52.43;;
3811;SDS011;1921;49.368;11.068;2023-05-20T08:23:23;63.73;;;53.17;;
3811;SDS011;1921;49.368;11.068;2023-05-20T08:25:50;63.10;;;52.13;;
3811;SDS011;1921;49.368;11.068;2023-05-20T08:28:16;61.42;;;52.47;;
3811;SDS011;1921;49.368;11.068;2023-05-20T08:30:42;61.13;;;52.80;;
3811;SDS011;1921;49.368;11.068;2023-05-20T08:33:08;69.37;;;52.60;;
3811;SDS011;1921;49.368;11.068;2023-05-20T08:35:34;61.87;;;52.43;;
3811;SDS011;1921;49.368;11.068;2023-05-20T08:38:03;64.97;;;53.70;;
3811;SDS011;1921;49.368;11.068;2023-05-20T08:40:29;64.57;;;54.47;;
3811;SDS011;1921;49.368;11.068;2023-05-20T08:42:55;64.87;;;53.77;;
3811;SDS011;1921;49.368;11.068;2023-05-20T08:45:23;63.77;;;53.73;;
3811;SDS011;1921;49.368;11.068;2023-05-20T08:47:52;64.97;;;55.03;;
3811;SDS011;1921;49.368;11.068;2023-05-20T08:50:18;66.93;;;55.00;;
3811;SDS011;1921;49.368;11.068;2023-05-20T08:52:45;66.17;;;52.80;;
3811;SDS011;1921;49.368;11.068;2023-05-20T08:55:13;66.80;;;53.13;;
3811;SDS011;1921;49.368;11.068;2023-05-20T08:58:01;69.20;;;54.27;;
3811;SDS011;1921;49.368;11.068;2023-05-20T09:00:27;67.07;;;55.30;;
3811;SDS011;1921;49.368;11.068;2023-05-20T09:02:53;64.67;;;52.97;;
3811;SDS011;1921;49.368;11.068;2023-05-20T09:05:20;65.47;;;54.20;;
3811;SDS011;1921;49.368;11.068;2023-05-20T09:07:46;64.90;;;54.03;;
3811;SDS011;1921;49.368;11.068;2023-05-20T09:10:13;63.60;;;52.40;;
3811;SDS011;1921;49.368;11.068;2023-05-20T09:12:38;64.20;;;54.50;;
3811;SDS011;1921;49.368;11.068;2023-05-20T09:15:04;64.60;;;53.73;;
3811;SDS011;1921;49.368;11.068;2023-05-20T09:17:33;66.55;;;55.35;;
3811;SDS011;1921;49.368;11.068;2023-05-20T09:20:01;63.97;;;54.10;;
3811;SDS011;1921;49.368;11.068;2023-05-20T09:22:32;64.82;;;54.08;;
3811;SDS011;1921;49.368;11.068;2023-05-20T09:24:58;63.53;;;52.97;;
3811;SDS011;1921;49.368;11.068;2023-05-20T09:27:24;65.13;;;53.97;;
3811;SDS011;1921;49.368;11.068;2023-05-20T09:29:49;64.87;;;53.90;;
3811;SDS011;1921;49.368;11.068;2023-05-20T09:32:16;65.90;;;54.70;;
3811;SDS011;1921;49.368;11.068;2023-05-20T09:34:45;61.67;;;51.90;;
3811;SDS011;1921;49.368;11.068;2023-05-20T09:37:11;63.13;;;53.30;;
3811;SDS011;1921;49.368;11.068;2023-05-20T09:39:48;64.90;;;54.73;;
3811;SDS011;1921;49.368;11.068;2023-05-20T09:42:25;62.05;;;53.10;;
3811;SDS011;1921;49.368;11.068;2023-05-20T09:45:08;71.27;;;53.03;;
3811;SDS011;1921;49.368;11.068;2023-05-20T09:47:35;63.70;;;52.77;;
3811;SDS011;1921;49.368;11.068;2023-05-20T09:50:04;62.57;;;52.40;;
3811;SDS011;1921;49.368;11.068;2023-05-20T09:52:33;65.70;;;54.23;;
3811;SDS011;1921;49.368;11.068;2023-05-20T09:55:01;67.77;;;54.70;;
3811;SDS011;1921;49.368;11.068;2023-05-20T09:57:32;64.67;;;53.23;;
3811;SDS011;1921;49.368;11.068;2023-05-20T10:00:00;66.80;;;53.90;;
3811;SDS011;1921;49.368;11.068;2023-05-20T10:02:27;66.23;;;54.57;;
3811;SDS011;1921;49.368;11.068;2023-05-20T10:04:53;64.20;;;53.97;;
3811;SDS011;1921;49.368;11.068;2023-05-20T10:11:00;64.60;;;54.10;;
3811;SDS011;1921;49.368;11.068;2023-05-20T10:13:54;66.50;;;55.07;;
3811;SDS011;1921;49.368;11.068;2023-05-20T10:19:32;65.93;;;53.63;;
3811;SDS011;1921;49.368;11.068;2023-05-20T10:22:02;65.90;;;53.63;;
3811;SDS011;1921;49.368;11.068;2023-05-20T10:24:37;65.67;;;54.67;;
3811;SDS011;1921;49.368;11.068;2023-05-20T10:27:12;66.87;;;54.87;;
3811;SDS011;1921;49.368;11.068;2023-05-20T10:29:49;66.10;;;54.58;;
3811;SDS011;1921;49.368;11.068;2023-05-20T10:32:22;64.27;;;53.70;;
3811;SDS011;1921;49.368;11.068;2023-05-20T10:34:52;66.73;;;54.53;;
3811;SDS011;1921;49.368;11.068;2023-05-20T10:37:23;64.87;;;54.00;;
3811;SDS011;1921;49.368;11.068;2023-05-20T10:40:30;64.83;;;53.83;;
3811;SDS011;1921;49.368;11.068;2023-05-20T10:42:49;63.80;;;53.80;;
3811;SDS011;1921;49.368;11.068;2023-05-20T10:45:27;65.30;;;53.50;;
3811;SDS011;1921;49.368;11.068;2023-05-20T10:47:57;69.57;;;53.60;;
3811;SDS011;1921;49.368;11.068;2023-05-20T10:50:35;63.87;;;54.07;;
3811;SDS011;1921;49.368;11.068;2023-05-20T10:53:04;65.40;;;54.70;;
3811;SDS011;1921;49.368;11.068;2023-05-20T10:55:36;66.13;;;54.57;;
3811;SDS011;1921;49.368;11.068;2023-05-20T10:58:03;66.67;;;55.07;;
3811;SDS011;1921;49.368;11.068;2023-05-20T11:00:31;65.03;;;54.50;;
3811;SDS011;1921;49.368;11.068;2023-05-20T11:03:00;67.03;;;54.83;;
3811;SDS011;1921;49.368;11.068;2023-05-20T11:05:28;68.13;;;56.00;;
3811;SDS011;1921;49.368;11.068;2023-05-20T11:08:00;65.03;;;53.80;;
3811;SDS011;1921;49.368;11.068;2023-05-20T11:10:27;68.87;;;55.93;;
3811;SDS011;1921;49.368;11.068;2023-05-20T11:12:53;64.90;;;54.70;;
3811;SDS011;1921;49.368;11.068;2023-05-20T11:15:21;69.40;;;55.17;;
3811;SDS011;1921;49.368;11.068;2023-05-20T11:17:51;65.73;;;53.53;;
3811;SDS011;1921;49.368;11.068;2023-05-20T11:20:22;66.40;;;55.03;;
3811;SDS011;1921;49.368;11.068;2023-05-20T11:22:49;65.90;;;53.90;;
3811;SDS011;1921;49.368;11.068;2023-05-20T11:25:16;63.57;;;53.50;;
3811;SDS011;1921;49.368;11.068;2023-05-20T11:27:42;65.93;;;53.67;;
3811;SDS011;1921;49.368;11.068;2023-05-20T11:30:12;65.93;;;53.97;;
3811;SDS011;1921;49.368;11.068;2023-05-20T11:32:55;65.17;;;53.43;;
3811;SDS011;1921;49.368;11.068;2023-05-20T11:35:25;71.40;;;55.53;;
3811;SDS011;1921;49.368;11.068;2023-05-20T11:38:04;61.63;;;51.60;;
3811;SDS011;1921;49.368;11.068;2023-05-20T11:40:33;66.70;;;54.83;;
3811;SDS011;1921;49.368;11.068;2023-05-20T11:42:59;63.70;;;53.50;;
3811;SDS011;1921;49.368;11.068;2023-05-20T11:45:40;63.50;;;53.90;;
3811;SDS011;1921;49.368;11.068;2023-05-20T11:48:11;68.90;;;53.77;;
3811;SDS011;1921;49.368;11.068;2023-05-20T11:50:44;66.37;;;53.77;;
3811;SDS011;1921;49.368;11.068;2023-05-20T11:53:16;67.30;;;54.40;;
3811;SDS011;1921;49.368;11.068;2023-05-20T11:55:44;66.50;;;54.83;;
3811;SDS011;1921;49.368;11.068;2023-05-20T11:58:21;64.40;;;53.37;;
3811;SDS011;1921;49.368;11.068;2023-05-20T12:00:48;64.67;;;53.80;;
3811;SDS011;1921;49.368;11.068;2023-05-20T12:03:14;66.20;;;55.20;;
3811;SDS011;1921;49.368;11.068;2023-05-20T12:05:40;65.23;;;53.77;;
3811;SDS011;1921;49.368;11.068;2023-05-20T12:08:07;69.43;;;54.23;;
3811;SDS011;1921;49.368;11.068;2023-05-20T12:10:33;64.87;;;53.70;;
3811;SDS011;1921;49.368;11.068;2023-05-20T12:12:59;70.77;;;56.37;;
3811;SDS011;1921;49.368;11.068;2023-05-20T12:15:25;67.60;;;54.50;;
3811;SDS011;1921;49.368;11.068;2023-05-20T12:17:51;69.20;;;55.50;;
3811;SDS011;1921;49.368;11.068;2023-05-20T12:20:18;72.13;;;56.55;;
3811;SDS011;1921;49.368;11.068;2023-05-20T12:22:48;69.40;;;55.30;;
3811;SDS011;1921;49.368;11.068;2023-05-20T12:25:15;67.70;;;56.10;;
3811;SDS011;1921;49.368;11.068;2023-05-20T12:27:43;66.03;;;54.40;;
3811;SDS011;1921;49.368;11.068;2023-05-20T12:30:18;65.47;;;54.27;;
3811;SDS011;1921;49.368;11.068;2023-05-20T12:32:45;68.80;;;55.30;;
3811;SDS011;1921;49.368;11.068;2023-05-20T12:35:13;70.30;;;55.60;;
3811;SDS011;1921;49.368;11.068;2023-05-20T12:37:40;65.40;;;53.87;;
3811;SDS011;1921;49.368;11.068;2023-05-20T12:40:07;65.00;;;54.90;;
3811;SDS011;1921;49.368;11.068;2023-05-20T12:42:35;67.33;;;55.30;;
3811;SDS011;1921;49.368;11.068;2023-05-20T12:45:04;72.80;;;56.88;;
3811;SDS011;1921;49.368;11.068;2023-05-20T12:47:32;68.50;;;56.00;;
3811;SDS011;1921;49.368;11.068;2023-05-20T12:49:59;66.60;;;54.53;;
3811;SDS011;1921;49.368;11.068;2023-05-20T12:52:25;66.73;;;55.20;;
3811;SDS011;1921;49.368;11.068;2023-05-20T12:54:52;67.90;;;55.93;;
3811;SDS011;1921;49.368;11.068;2023-05-20T12:57:20;68.93;;;56.10;;
3811;SDS011;1921;49.368;11.068;2023-05-20T12:59:45;71.50;;;56.87;;
3811;SDS011;1921;49.368;11.068;2023-05-20T13:02:11;72.63;;;56.83;;
3811;SDS011;1921;49.368;11.068;2023-05-20T13:04:37;72.57;;;56.57;;
3811;SDS011;1921;49.368;11.068;2023-05-20T13:07:02;66.93;;;54.20;;
3811;SDS011;1921;49.368;11.068;2023-05-20T13:09:28;69.70;;;56.70;;
3811;SDS011;1921;49.368;11.068;2023-05-20T13:11:54;69.47;;;55.00;;
3811;SDS011;1921;49.368;11.068;2023-05-20T13:14:20;70.00;;;56.72;;
3811;SDS011;1921;49.368;11.068;2023-05-20T13:16:49;69.70;;;56.93;;
3811;SDS011;1921;49.368;11.068;2023-05-20T13:19:22;65.80;;;54.50;;
3811;SDS011;1921;49.368;11.068;2023-05-20T13:21:49;68.33;;;55.50;;
3811;SDS011;1921;49.368;11.068;2023-05-20T13:24:16;65.77;;;54.03;;
3811;SDS011;1921;49.368;11.068;2023-05-20T13:26:42;70.80;;;55.20;;
3811;SDS011;1921;49.368;11.068;2023-05-20T13:29:09;65.63;;;53.90;;
3811;SDS011;1921;49.368;11.068;2023-05-20T13:31:36;64.90;;;53.97;;
3811;SDS011;1921;49.368;11.068;2023-05-20T13:34:02;64.10;;;53.33;;
3811;SDS011;1921;49.368;11.068;2023-05-20T13:36:28;68.85;;;55.90;;
3811;SDS011;1921;49.368;11.068;2023-05-20T13:38:54;73.13;;;55.60;;
3811;SDS011;1921;49.368;11.068;2023-05-20T13:41:20;70.40;;;56.60;;
3811;SDS011;1921;49.368;11.068;2023-05-20T13:43:48;67.90;;;55.70;;
3811;SDS011;1921;49.368;11.068;2023-05-20T13:46:14;70.47;;;56.37;;
3811;SDS011;1921;49.368;11.068;2023-05-20T13:48:41;65.60;;;53.80;;
3811;SDS011;1921;49.368;11.068;2023-05-20T13:51:06;70.10;;;57.40;;
3811;SDS011;1921;49.368;11.068;2023-05-20T13:53:32;73.73;;;56.10;;
3811;SDS011;1921;49.368;11.068;2023-05-20T13:55:58;64.57;;;54.07;;
3811;SDS011;1921;49.368;11.068;2023-05-20T13:58:24;70.63;;;55.80;;
3811;SDS011;1921;49.368;11.068;2023-05-20T14:00:49;64.83;;;54.03;;
3811;SDS011;1921;49.368;11.068;2023-05-20T14:03:16;67.88;;;55.10;;
3811;SDS011;1921;49.368;11.068;2023-05-20T14:05:41;66.60;;;54.77;;
3811;SDS011;1921;49.368;11.068;2023-05-20T14:08:07;66.13;;;53.47;;
3811;SDS011;1921;49.368;11.068;2023-05-20T14:10:33;65.10;;;53.27;;
3811;SDS011;1921;49.368;11.068;2023-05-20T14:12:59;65.90;;;54.83;;
3811;SDS011;1921;49.368;11.068;2023-05-20T14:15:26;63.70;;;53.03;;
3811;SDS011;1921;49.368;11.068;2023-05-20T14:17:55;67.77;;;55.30;;
3811;SDS011;1921;49.368;11.068;2023-05-20T14:20:24;65.40;;;54.95;;
3811;SDS011;1921;49.368;11.068;2023-05-20T14:22:50;66.67;;;55.70;;
3811;SDS011;1921;49.368;11.068;2023-05-20T14:25:17;67.57;;;55.77;;
3811;SDS011;1921;49.368;11.068;2023-05-20T14:27:43;71.70;;;55.53;;
3811;SDS011;1921;49.368;11.068;2023-05-20T14:30:09;70.80;;;55.20;;
3811;SDS011;1921;49.368;11.068;2023-05-20T14:32:35;68.80;;;56.23;;
3811;SDS011;1921;49.368;11.068;2023-05-20T14:35:00;68.07;;;55.77;;
3811;SDS011;1921;49.368;11.068;2023-05-20T14:37:26;72.87;;;55.73;;
3811;SDS011;1921;49.368;11.068;2023-05-20T14:39:53;71.17;;;56.17;;